Airfield :







YOU CAN JOIN US ON...

 
LOGIN :

Register | Disclaimer

   EN    FR    IT 

 









Legend :    VFR   Marginal VFR   IFR   Intensive IFR   Very Intensive IFR
Visi :
Ceiling :
>= 8 km
>= 3000ft
5 to 8 km
1000 to 3000 ft
1500m to 5 km
500 to 1000 ft
800 to 1500m
200 to 500 ft
< 800m
< 200 ft
Symbols :   Thunderstorms  Fog  Heavy snow  Heavy precipitations  Wind > 20 kt






- Airport Elevation : 54 ft
- IATA code : BEL


SBBE - Val de Cans Int.

CURRENT METAR :
  • 210300Z 22003KT 9999 FEW015 BKN100 23/23 Q1012

EXPIRED METARs :
  • 210200Z 07002KT 9999 -RA SCT015 BKN100 23/23 Q1012
  • 210100Z 10005KT 9999 -RA FEW005 SCT015 BKN100 23/23 Q1011

TAF TAF SBBE
Valid from the 21 at 00:00 until the 22 at 00:00 UTC


202128Z 2100/2124 07007KT 9999 SCT017 TN24/2109Z TX30/2115Z
PROB40
TEMPO 2104/2109 2500 RA BKN009
BECMG 2113/2115 34007KT 6000 BKN017 FEW025TCU
PROB40 2118/2121 04007KT 3000 TSRA BKN017 FEW025CB
BECMG 2121/2123 15005KT 8000 SCT020 RMK PHN



MET'MAP, your aeronautical weather chart ! - Copyright ORBIFLY December 2007 - Disclaimer

ORBIFLY MET'MAP TEAM :

Programming & Development : Alexandra Zaïnal
Concept & original design : Baudouin d'Aumeries
Assistance for programming : Marc-Olivier Méhu
Technical & hardware support : Manuel Goepfert

Contact : metmap@orbifly.com




SOURCES & CREDITS :

   NOAA